createdAt,value
2018-06-07T00:00:40.793Z,20.35
2018-06-07T00:01:41.050Z,20.33
2018-06-07T00:02:41.199Z,20.31
2018-06-07T00:03:41.398Z,20.33
2018-06-07T00:04:41.592Z,20.28
2018-06-07T00:05:41.784Z,20.24
2018-06-07T00:06:41.986Z,20.36
2018-06-07T00:09:14.181Z,20.31
2018-06-07T00:10:14.358Z,20.31
2018-06-07T00:11:14.548Z,20.29
2018-06-07T00:12:14.759Z,20.29
2018-06-07T00:13:14.981Z,20.21
2018-06-07T00:14:15.183Z,20.23
2018-06-07T00:15:15.402Z,20.06
2018-06-07T00:16:15.616Z,20.13
2018-06-07T00:17:15.805Z,20.13
2018-06-07T00:18:16.015Z,20.18
2018-06-07T00:19:16.201Z,20.11
2018-06-07T00:20:16.401Z,20.16
2018-06-07T00:21:16.583Z,20.08
2018-06-07T00:22:16.792Z,20.01
2018-06-07T00:23:17.003Z,20.05
2018-06-07T00:25:49.119Z,20.05
2018-06-07T00:26:49.298Z,20.05
2018-06-07T00:27:49.505Z,20.05
2018-06-07T00:28:49.713Z,20.14
2018-06-07T00:29:49.933Z,20.03
2018-06-07T00:30:50.140Z,20.06
2018-06-07T00:31:50.335Z,19.94
2018-06-07T00:32:50.533Z,20.03
2018-06-07T00:33:50.725Z,19.95
2018-06-07T00:34:50.926Z,19.87
2018-06-07T00:35:51.130Z,19.95
2018-06-07T00:36:51.352Z,19.84
2018-06-07T00:37:51.556Z,19.91
2018-06-07T00:38:51.775Z,19.91
2018-06-07T00:39:51.974Z,19.88
2018-06-07T00:40:52.178Z,19.86
2018-06-07T00:41:52.374Z,19.87
2018-06-07T00:42:52.588Z,19.87
2018-06-07T00:43:52.781Z,19.94
2018-06-07T00:44:52.976Z,19.91
2018-06-07T00:45:53.203Z,19.84
2018-06-07T00:46:53.416Z,19.80
2018-06-07T00:47:53.623Z,19.88
2018-06-07T00:48:53.833Z,19.88
2018-06-07T00:49:54.034Z,19.78
2018-06-07T00:50:54.249Z,19.84
2018-06-07T00:51:54.436Z,19.69
2018-06-07T00:52:54.627Z,19.78
2018-06-07T00:53:54.821Z,19.77
2018-06-07T00:54:55.038Z,19.66
2018-06-07T00:55:55.252Z,19.71
2018-06-07T00:56:55.437Z,19.62
2018-06-07T00:57:55.626Z,19.65
2018-06-07T00:58:55.823Z,19.68
2018-06-07T00:59:56.014Z,19.66
2018-06-07T01:00:56.229Z,19.65
2018-06-07T01:01:56.425Z,19.61
2018-06-07T01:02:56.645Z,19.66
2018-06-07T01:03:56.830Z,19.65
2018-06-07T01:04:57.020Z,19.71
2018-06-07T01:05:57.208Z,19.69
2018-06-07T01:06:57.393Z,19.68
2018-06-07T01:07:57.585Z,19.66
2018-06-07T01:08:57.795Z,19.61
2018-06-07T01:09:58.007Z,19.63
2018-06-07T01:10:58.218Z,19.66
2018-06-07T01:11:58.412Z,19.59
2018-06-07T01:12:58.600Z,19.55
2018-06-07T01:13:58.795Z,19.58
2018-06-07T01:14:59.007Z,19.62
2018-06-07T01:15:59.220Z,19.59
2018-06-07T01:16:59.421Z,19.58
2018-06-07T01:17:59.632Z,19.46
2018-06-07T01:18:59.821Z,19.48
2018-06-07T01:20:00.023Z,19.46
2018-06-07T01:21:00.226Z,19.50
2018-06-07T01:22:00.438Z,19.43
2018-06-07T01:23:00.657Z,19.44
2018-06-07T01:24:00.846Z,19.51
2018-06-07T01:25:01.103Z,19.47
2018-06-07T01:26:01.291Z,19.46
2018-06-07T01:27:01.499Z,19.54
2018-06-07T01:28:01.695Z,19.41
2018-06-07T01:29:01.909Z,19.40
2018-06-07T01:30:02.116Z,19.28
2018-06-07T01:31:02.306Z,19.31
2018-06-07T01:32:02.516Z,19.29
2018-06-07T01:33:02.708Z,19.31
2018-06-07T01:34:02.905Z,19.29
2018-06-07T01:35:03.096Z,19.29
2018-06-07T01:36:03.287Z,19.28
2018-06-07T01:37:03.475Z,19.23
2018-06-07T01:38:03.689Z,19.19
2018-06-07T01:39:03.875Z,19.16
2018-06-07T01:40:04.089Z,19.11
2018-06-07T01:41:04.299Z,19.13
2018-06-07T01:42:04.516Z,19.16
2018-06-07T01:43:04.784Z,19.02
2018-06-07T01:44:04.863Z,19.08
2018-06-07T01:45:05.106Z,19.13
2018-06-07T01:46:05.272Z,19.04
2018-06-07T01:47:05.485Z,19.10
2018-06-07T01:48:05.683Z,19.07
2018-06-07T01:49:05.868Z,19.19
2018-06-07T01:50:06.067Z,19.06
2018-06-07T01:51:06.270Z,19.18
2018-06-07T01:52:06.455Z,19.11
2018-06-07T01:54:38.849Z,19.07
2018-06-07T01:55:38.774Z,19.06
2018-06-07T01:56:38.975Z,18.80
2018-06-07T01:57:39.166Z,18.88
2018-06-07T01:58:39.382Z,18.87
2018-06-07T01:59:39.566Z,18.76
2018-06-07T02:00:39.774Z,18.84
2018-06-07T02:01:39.990Z,18.82
2018-06-07T02:02:40.176Z,18.81
2018-06-07T02:05:12.291Z,18.87
2018-06-07T02:06:12.464Z,18.85
2018-06-07T02:07:12.674Z,18.81
2018-06-07T02:08:12.867Z,18.82
2018-06-07T02:09:13.068Z,18.78
2018-06-07T02:10:13.275Z,18.81
2018-06-07T02:11:13.493Z,18.82
2018-06-07T02:12:13.698Z,18.81
2018-06-07T02:13:13.883Z,18.80
2018-06-07T02:15:46.287Z,18.84
2018-06-07T02:16:46.218Z,18.76
2018-06-07T02:17:46.401Z,18.78
2018-06-07T02:18:46.591Z,18.76
2018-06-07T02:19:46.786Z,18.75
2018-06-07T02:20:47.011Z,18.73
2018-06-07T02:21:47.226Z,18.73
2018-06-07T02:22:47.406Z,18.65
2018-06-07T02:23:47.612Z,18.62
2018-06-07T02:24:47.823Z,18.62
2018-06-07T02:25:48.036Z,18.57
2018-06-07T02:26:48.242Z,18.62
2018-06-07T02:27:48.446Z,18.62
2018-06-07T02:28:48.647Z,18.65
2018-06-07T02:29:48.835Z,18.66
2018-06-07T02:30:49.058Z,18.62
2018-06-07T02:31:49.257Z,18.55
2018-06-07T02:32:49.472Z,18.55
2018-06-07T02:33:49.676Z,18.65
2018-06-07T02:34:49.871Z,18.55
2018-06-07T02:37:21.689Z,18.60
2018-06-07T02:38:21.876Z,18.51
2018-06-07T02:39:22.068Z,18.60
2018-06-07T02:41:54.183Z,18.60
2018-06-07T02:42:54.360Z,18.55
2018-06-07T02:43:54.536Z,18.55
2018-06-07T02:44:54.724Z,18.60
2018-06-07T02:45:54.938Z,18.62
2018-06-07T02:46:55.142Z,18.58
2018-06-07T02:47:55.353Z,18.60
2018-06-07T02:48:55.547Z,18.62
2018-06-07T02:49:55.757Z,18.58
2018-06-07T02:50:55.966Z,18.60
2018-06-07T02:51:56.170Z,18.48
2018-06-07T02:52:56.361Z,18.51
2018-06-07T02:53:56.566Z,18.44
2018-06-07T02:54:56.770Z,18.42
2018-06-07T02:55:56.987Z,18.50
2018-06-07T02:56:57.183Z,18.52
2018-06-07T02:57:57.378Z,18.50
2018-06-07T02:58:57.580Z,18.41
2018-06-07T02:59:57.788Z,18.35
2018-06-07T03:00:58.001Z,18.27
2018-06-07T03:01:58.182Z,18.45
2018-06-07T03:02:58.460Z,18.33
2018-06-07T03:03:58.530Z,18.44
2018-06-07T03:04:58.717Z,18.37
2018-06-07T03:05:58.931Z,18.32
2018-06-07T03:06:59.142Z,18.15
2018-06-07T03:07:59.358Z,18.23
2018-06-07T03:08:59.578Z,18.10
2018-06-07T03:09:59.776Z,18.17
2018-06-07T03:10:59.976Z,18.17
2018-06-07T03:12:00.177Z,18.18
2018-06-07T03:13:00.388Z,18.23
2018-06-07T03:14:00.603Z,18.25
2018-06-07T03:15:00.813Z,18.20
2018-06-07T03:16:01.022Z,18.18
2018-06-07T03:17:01.226Z,18.14
2018-06-07T03:18:01.420Z,18.26
2018-06-07T03:19:01.621Z,18.25
2018-06-07T03:20:01.809Z,18.27
2018-06-07T03:21:02.008Z,18.26
2018-06-07T03:22:02.206Z,18.21
2018-06-07T03:23:02.408Z,18.23
2018-06-07T03:24:02.608Z,18.20
2018-06-07T03:25:02.800Z,18.23
2018-06-07T03:26:03.009Z,18.12
2018-06-07T03:27:03.221Z,18.23
2018-06-07T03:28:03.415Z,18.18
2018-06-07T03:29:03.605Z,18.18
2018-06-07T03:30:03.797Z,18.20
2018-06-07T03:31:04.011Z,18.15
2018-06-07T03:32:04.214Z,18.20
2018-06-07T03:33:04.415Z,18.20
2018-06-07T03:34:04.619Z,18.20
2018-06-07T03:35:04.823Z,18.20
2018-06-07T03:36:05.015Z,18.07
2018-06-07T03:37:05.216Z,18.10
2018-06-07T03:38:05.420Z,18.00
2018-06-07T03:39:05.611Z,18.05
2018-06-07T03:40:05.820Z,17.87
2018-06-07T03:41:06.025Z,17.92
2018-06-07T03:42:06.223Z,17.86
2018-06-07T03:43:06.491Z,17.93
2018-06-07T03:44:06.562Z,17.84
2018-06-07T03:45:06.755Z,18.07
2018-06-07T03:46:06.975Z,18.00
2018-06-07T03:47:07.166Z,18.14
2018-06-07T03:48:07.377Z,18.03
2018-06-07T03:49:07.568Z,18.12
2018-06-07T03:51:39.414Z,18.36
2018-06-07T03:52:39.649Z,18.36
2018-06-07T03:53:39.789Z,18.44
2018-06-07T03:54:39.997Z,18.48
2018-06-07T03:55:40.192Z,18.52
2018-06-07T03:56:40.368Z,18.57
2018-06-07T03:57:40.584Z,18.63
2018-06-07T03:58:40.777Z,18.60
2018-06-07T03:59:40.983Z,18.50
2018-06-07T04:00:41.192Z,18.45
2018-06-07T04:01:41.412Z,18.51
2018-06-07T04:02:41.626Z,18.39
2018-06-07T04:03:41.817Z,18.27
2018-06-07T04:04:42.028Z,18.32
2018-06-07T04:05:42.226Z,18.32
2018-06-07T04:06:42.418Z,18.25
2018-06-07T04:07:42.608Z,18.45
2018-06-07T04:08:42.821Z,18.48
2018-06-07T04:09:43.037Z,18.67
2018-06-07T04:10:43.220Z,18.73
2018-06-07T04:11:43.408Z,18.88
2018-06-07T04:12:43.619Z,19.07
2018-06-07T04:13:43.824Z,19.46
2018-06-07T04:14:44.022Z,19.88
2018-06-07T04:15:44.207Z,20.06
2018-06-07T04:16:44.508Z,20.05
2018-06-07T04:17:44.566Z,20.11
2018-06-07T04:18:44.777Z,20.29
2018-06-07T04:19:44.972Z,20.31
2018-06-07T04:20:45.182Z,20.16
2018-06-07T04:21:45.378Z,20.29
2018-06-07T04:22:45.569Z,20.18
2018-06-07T04:23:45.783Z,20.28
2018-06-07T04:24:45.987Z,20.23
2018-06-07T04:25:46.183Z,20.06
2018-06-07T04:26:46.382Z,20.16
2018-06-07T04:27:46.589Z,20.02
2018-06-07T04:28:46.784Z,20.13
2018-06-07T04:29:46.973Z,20.11
2018-06-07T04:30:47.166Z,20.11
2018-06-07T04:31:47.370Z,20.18
2018-06-07T04:32:47.579Z,20.08
2018-06-07T04:33:47.778Z,20.03
2018-06-07T04:34:47.990Z,20.32
2018-06-07T04:35:48.175Z,20.39
2018-06-07T04:36:48.384Z,20.59
2018-06-07T04:37:48.596Z,20.74
2018-06-07T04:38:48.782Z,20.52
2018-06-07T04:39:49.004Z,20.42
2018-06-07T04:40:49.199Z,20.47
2018-06-07T04:41:49.409Z,20.64
2018-06-07T04:42:49.613Z,20.61
2018-06-07T04:43:49.846Z,20.62
2018-06-07T04:44:50.014Z,20.82
2018-06-07T04:45:50.277Z,20.87
2018-06-07T04:46:50.373Z,20.95
2018-06-07T04:47:50.571Z,21.09
2018-06-07T04:48:50.785Z,21.04
2018-06-07T04:49:51.000Z,21.10
2018-06-07T04:50:51.218Z,21.37
2018-06-07T04:51:51.416Z,21.64
2018-06-07T04:52:51.605Z,21.54
2018-06-07T04:53:51.825Z,21.53
2018-06-07T04:54:52.017Z,22.09
2018-06-07T04:55:52.210Z,21.53
2018-06-07T04:56:52.417Z,21.42
2018-06-07T04:57:52.604Z,22.07
2018-06-07T05:00:24.713Z,21.62
2018-06-07T05:01:24.892Z,22.05
2018-06-07T05:02:25.085Z,22.43
2018-06-07T05:03:25.293Z,22.35
2018-06-07T05:04:25.499Z,22.31
2018-06-07T05:05:25.693Z,22.24
2018-06-07T05:06:25.886Z,22.21
2018-06-07T05:07:26.075Z,22.02
2018-06-07T05:08:26.287Z,22.06
2018-06-07T05:09:26.489Z,21.71
2018-06-07T05:10:26.706Z,22.00
2018-06-07T05:11:26.902Z,22.12
2018-06-07T05:12:27.209Z,22.03
2018-06-07T05:13:27.308Z,21.90
2018-06-07T05:14:27.524Z,21.80
2018-06-07T05:15:27.719Z,21.91
2018-06-07T05:16:27.937Z,22.02
2018-06-07T05:17:28.173Z,22.28
2018-06-07T05:18:28.366Z,22.51
2018-06-07T05:19:28.585Z,22.22
2018-06-07T05:20:28.794Z,22.54
2018-06-07T05:21:29.014Z,22.94
2018-06-07T05:22:29.226Z,22.80
2018-06-07T05:23:29.444Z,22.77
2018-06-07T05:24:29.639Z,23.42
2018-06-07T05:25:29.843Z,23.16
2018-06-07T05:28:01.666Z,23.38
2018-06-07T05:29:01.845Z,23.20
2018-06-07T05:30:02.054Z,23.31
2018-06-07T05:31:02.266Z,22.67
2018-06-07T05:32:02.488Z,23.16
2018-06-07T05:33:02.698Z,22.90
2018-06-07T05:34:02.914Z,23.12
2018-06-07T05:36:35.136Z,23.88
2018-06-07T05:37:35.312Z,23.95
2018-06-07T05:38:35.514Z,23.97
2018-06-07T05:39:35.707Z,23.85
2018-06-07T05:40:35.920Z,24.34
2018-06-07T05:41:36.138Z,24.30
2018-06-07T05:42:36.346Z,24.32
2018-06-07T05:43:36.658Z,24.24
2018-06-07T05:44:36.761Z,24.37
2018-06-07T05:45:36.949Z,23.79
2018-06-07T05:46:37.182Z,23.38
2018-06-07T05:47:37.397Z,24.13
2018-06-07T05:48:37.594Z,24.25
2018-06-07T05:49:37.803Z,23.48
2018-06-07T05:50:38.007Z,23.57
2018-06-07T05:51:38.254Z,23.88
2018-06-07T05:52:38.431Z,24.09
2018-06-07T05:55:10.557Z,24.09
2018-06-07T05:56:10.745Z,25.02
2018-06-07T05:57:10.943Z,25.60
2018-06-07T05:58:11.188Z,24.83
2018-06-07T05:59:11.374Z,25.24
2018-06-07T06:00:11.580Z,26.51
2018-06-07T06:01:11.789Z,26.62
2018-06-07T06:02:11.997Z,26.84
2018-06-07T06:03:12.211Z,25.08
2018-06-07T06:04:12.423Z,25.82
2018-06-07T06:05:12.656Z,26.36
2018-06-07T06:06:12.852Z,25.76
2018-06-07T06:07:13.052Z,25.62
2018-06-07T06:08:13.288Z,25.69
2018-06-07T06:09:13.502Z,25.94
2018-06-07T06:10:13.710Z,24.96
2018-06-07T06:11:13.913Z,24.35
2018-06-07T06:12:14.099Z,24.85
2018-06-07T06:13:14.308Z,25.99
2018-06-07T06:14:14.512Z,26.54
2018-06-07T06:15:14.730Z,26.06
2018-06-07T06:16:15.089Z,26.07
2018-06-07T06:17:15.159Z,26.50
2018-06-07T06:19:47.307Z,27.13
2018-06-07T06:20:47.492Z,27.19
2018-06-07T06:21:47.701Z,27.82
2018-06-07T06:22:47.915Z,27.60
2018-06-07T06:23:48.128Z,28.03
2018-06-07T06:24:48.335Z,28.34
2018-06-07T06:25:48.543Z,28.61
2018-06-07T06:26:48.756Z,28.96
2018-06-07T06:27:48.992Z,28.34
2018-06-07T06:28:49.157Z,27.74
2018-06-07T06:31:21.289Z,27.87
2018-06-07T06:32:21.469Z,28.40
2018-06-07T06:33:21.751Z,29.31
2018-06-07T06:34:21.887Z,29.11
2018-06-07T06:35:22.121Z,27.37
2018-06-07T06:36:22.245Z,27.06
2018-06-07T06:37:22.441Z,26.97
2018-06-07T06:38:22.654Z,26.45
2018-06-07T06:39:22.949Z,27.13
2018-06-07T06:40:23.017Z,27.59
2018-06-07T06:41:23.235Z,27.84
2018-06-07T06:42:23.449Z,28.03
2018-06-07T06:43:23.658Z,26.37
2018-06-07T06:44:23.875Z,26.17
2018-06-07T06:45:24.076Z,27.00
2018-06-07T06:46:24.277Z,27.96
2018-06-07T06:47:24.488Z,29.04
2018-06-07T06:48:24.721Z,29.86
2018-06-07T06:49:24.975Z,30.02
2018-06-07T06:50:25.134Z,30.55
2018-06-07T06:51:25.331Z,31.10
2018-06-07T06:52:25.550Z,31.47
2018-06-07T06:53:25.778Z,31.12
2018-06-07T06:54:25.988Z,31.44
2018-06-07T06:55:26.214Z,30.92
2018-06-07T06:56:26.419Z,30.82
2018-06-07T06:57:26.638Z,30.07
2018-06-07T06:58:26.968Z,29.64
2018-06-07T06:59:27.067Z,29.36
2018-06-07T07:00:27.284Z,29.92
2018-06-07T07:01:27.507Z,29.12
2018-06-07T07:02:27.714Z,28.70
2018-06-07T07:03:27.925Z,29.65
2018-06-07T07:04:28.155Z,29.73
2018-06-07T07:05:28.388Z,30.32
2018-06-07T07:06:28.612Z,29.82
2018-06-07T07:07:28.836Z,29.53
2018-06-07T07:08:29.048Z,29.58
2018-06-07T07:09:29.269Z,29.87
2018-06-07T07:10:29.467Z,29.86
2018-06-07T07:11:29.685Z,29.34
2018-06-07T07:12:29.989Z,29.51
2018-06-07T07:13:30.065Z,29.04
2018-06-07T07:14:30.273Z,29.51
2018-06-07T07:15:30.467Z,30.19
2018-06-07T07:16:30.678Z,31.04
2018-06-07T07:17:30.879Z,30.98
2018-06-07T07:18:31.098Z,30.13
2018-06-07T07:19:31.305Z,30.45
2018-06-07T07:20:31.501Z,30.45
2018-06-07T07:21:31.730Z,30.76
2018-06-07T07:22:31.939Z,30.49
2018-06-07T07:23:32.169Z,29.79
2018-06-07T07:24:32.387Z,29.06
2018-06-07T07:25:32.593Z,30.04
2018-06-07T07:26:32.817Z,30.49
2018-06-07T07:27:33.022Z,30.54
2018-06-07T07:28:33.223Z,29.73
2018-06-07T07:29:33.446Z,30.13
2018-06-07T07:30:33.669Z,28.89
2018-06-07T07:31:33.876Z,28.64
2018-06-07T07:32:34.095Z,27.97
2018-06-07T07:33:34.300Z,28.31
2018-06-07T07:34:34.569Z,28.86
2018-06-07T07:35:34.752Z,29.82
2018-06-07T07:36:35.132Z,30.61
2018-06-07T07:37:35.193Z,30.75
2018-06-07T07:38:35.411Z,31.12
2018-06-07T07:39:35.605Z,31.84
2018-06-07T07:40:35.811Z,31.72
2018-06-07T07:41:36.031Z,31.73
2018-06-07T07:42:36.233Z,32.21
2018-06-07T07:43:36.451Z,31.78
2018-06-07T07:44:36.671Z,31.39
2018-06-07T07:45:36.894Z,30.73
2018-06-07T07:46:37.096Z,30.07
2018-06-07T07:47:37.322Z,30.97
2018-06-07T07:48:37.532Z,31.38
2018-06-07T07:49:37.758Z,30.94
2018-06-07T07:50:37.958Z,29.58
2018-06-07T07:51:38.204Z,29.27
2018-06-07T07:52:38.409Z,30.04
2018-06-07T07:53:38.626Z,30.73
2018-06-07T07:54:38.841Z,31.56
2018-06-07T07:55:39.048Z,31.69
2018-06-07T07:56:39.277Z,31.21
2018-06-07T07:57:39.491Z,31.84
2018-06-07T07:58:39.703Z,32.10
2018-06-07T07:59:39.957Z,32.21
2018-06-07T08:00:40.147Z,32.33
2018-06-07T08:01:40.362Z,32.40
2018-06-07T08:02:40.582Z,30.88
2018-06-07T08:03:40.791Z,31.36
2018-06-07T08:04:41.007Z,32.47
2018-06-07T08:05:41.251Z,32.52
2018-06-07T08:06:41.459Z,33.06
2018-06-07T08:07:41.690Z,31.56
2018-06-07T08:08:41.897Z,31.51
2018-06-07T08:11:14.060Z,31.19
2018-06-07T08:12:14.253Z,31.43
2018-06-07T08:13:14.474Z,31.66
2018-06-07T08:14:14.696Z,32.08
2018-06-07T08:15:14.921Z,32.10
2018-06-07T08:16:15.131Z,31.99
2018-06-07T08:17:15.326Z,32.23
2018-06-07T08:18:15.546Z,32.14
2018-06-07T08:19:15.774Z,32.14
2018-06-07T08:20:15.999Z,32.11
2018-06-07T08:22:47.864Z,30.70
2018-06-07T08:23:48.029Z,31.91
2018-06-07T08:24:48.252Z,30.05
2018-06-07T08:25:48.450Z,30.58
2018-06-07T08:26:48.671Z,31.93
2018-06-07T08:27:48.897Z,31.86
2018-06-07T08:28:49.104Z,30.39
2018-06-07T08:29:49.343Z,31.13
2018-06-07T08:30:49.542Z,31.92
2018-06-07T08:31:49.766Z,31.63
2018-06-07T08:32:49.987Z,32.37
2018-06-07T08:33:50.214Z,32.62
2018-06-07T08:34:50.433Z,32.75
2018-06-07T08:35:50.640Z,32.92
2018-06-07T08:36:50.837Z,32.25
2018-06-07T08:37:51.170Z,33.21
2018-06-07T08:38:51.241Z,33.09
2018-06-07T08:39:51.448Z,33.18
2018-06-07T08:40:51.651Z,31.89
2018-06-07T08:41:51.871Z,31.80
2018-06-07T08:42:52.092Z,31.95
2018-06-07T08:43:52.307Z,31.51
2018-06-07T08:44:52.514Z,30.77
2018-06-07T08:45:52.707Z,31.93
2018-06-07T08:46:52.934Z,31.89
2018-06-07T08:47:53.146Z,31.13
2018-06-07T08:48:53.374Z,31.54
2018-06-07T08:49:53.594Z,32.79
2018-06-07T08:50:53.823Z,33.78
2018-06-07T08:51:54.017Z,34.35
2018-06-07T08:52:54.242Z,34.72
2018-06-07T08:53:54.447Z,33.94
2018-06-07T08:54:54.670Z,31.47
2018-06-07T08:55:54.878Z,31.17
2018-06-07T08:56:55.084Z,32.01
2018-06-07T08:57:55.296Z,32.78
2018-06-07T08:58:55.527Z,32.37
2018-06-07T08:59:55.739Z,31.43
2018-06-07T09:00:55.944Z,31.14
2018-06-07T09:01:56.181Z,32.66
2018-06-07T09:02:56.409Z,34.02
2018-06-07T09:03:56.637Z,34.82
2018-06-07T09:04:56.861Z,35.56
2018-06-07T09:05:57.076Z,35.26
2018-06-07T09:06:57.308Z,35.50
2018-06-07T09:07:57.526Z,35.23
2018-06-07T09:08:57.737Z,33.79
2018-06-07T09:09:57.959Z,33.23
2018-06-07T09:10:58.155Z,34.35
2018-06-07T09:11:58.355Z,33.76
2018-06-07T09:12:58.630Z,33.21
2018-06-07T09:13:58.793Z,32.78
2018-06-07T09:14:59.011Z,30.02
2018-06-07T09:15:59.216Z,29.16
2018-06-07T09:16:59.435Z,30.51
2018-06-07T09:17:59.641Z,30.82
2018-06-07T09:18:59.846Z,31.09
2018-06-07T09:20:00.049Z,30.92
2018-06-07T09:21:00.254Z,30.77
2018-06-07T09:22:00.464Z,31.80
2018-06-07T09:23:00.679Z,32.78
2018-06-07T09:24:00.924Z,32.96
2018-06-07T09:25:01.137Z,32.78
2018-06-07T09:26:01.446Z,33.11
2018-06-07T09:27:01.578Z,33.37
2018-06-07T09:28:01.786Z,33.66
2018-06-07T09:29:02.003Z,33.22
2018-06-07T09:30:02.229Z,32.84
2018-06-07T09:31:02.456Z,33.04
2018-06-07T09:32:02.679Z,32.94
2018-06-07T09:33:02.907Z,33.23
2018-06-07T09:34:03.133Z,33.41
2018-06-07T09:35:03.358Z,32.44
2018-06-07T09:36:03.570Z,32.59
2018-06-07T09:37:03.787Z,33.23
2018-06-07T09:38:04.008Z,31.01
2018-06-07T09:39:04.233Z,29.83
2018-06-07T09:40:04.453Z,30.60
2018-06-07T09:41:04.660Z,31.29
2018-06-07T09:42:04.889Z,31.53
2018-06-07T09:43:05.106Z,32.41
2018-06-07T09:44:05.317Z,33.23
2018-06-07T09:45:05.548Z,33.38
2018-06-07T09:46:05.715Z,33.95
2018-06-07T09:47:05.937Z,33.78
2018-06-07T09:48:06.160Z,33.76
2018-06-07T09:49:06.365Z,33.88
2018-06-07T09:50:06.568Z,33.95
2018-06-07T09:51:06.918Z,33.66
2018-06-07T09:52:07.017Z,33.68
2018-06-07T09:53:07.242Z,33.35
2018-06-07T09:54:07.461Z,33.72
2018-06-07T09:55:07.656Z,33.53
2018-06-07T09:56:07.865Z,33.54
2018-06-07T09:57:08.071Z,34.03
2018-06-07T09:58:08.315Z,34.24
2018-06-07T09:59:08.483Z,34.03
2018-06-07T10:00:08.689Z,32.93
2018-06-07T10:01:08.913Z,31.93
2018-06-07T10:02:09.113Z,32.79
2018-06-07T10:03:09.311Z,33.57
2018-06-07T10:04:09.532Z,34.35
2018-06-07T10:05:09.733Z,34.65
2018-06-07T10:06:09.962Z,34.92
2018-06-07T10:07:10.190Z,34.78
2018-06-07T10:08:10.387Z,33.57
2018-06-07T10:09:10.590Z,33.16
2018-06-07T10:10:10.811Z,33.07
2018-06-07T10:11:11.042Z,31.91
2018-06-07T10:12:11.255Z,30.45
2018-06-07T10:13:11.472Z,29.42
2018-06-07T10:14:11.696Z,30.60
2018-06-07T10:15:11.930Z,30.54
2018-06-07T10:16:12.157Z,29.27
2018-06-07T10:17:12.347Z,29.86
2018-06-07T10:18:12.567Z,30.42
2018-06-07T10:19:12.779Z,29.63
2018-06-07T10:20:12.999Z,30.54
2018-06-07T10:21:13.217Z,31.10
2018-06-07T10:22:13.416Z,31.56
2018-06-07T10:23:13.639Z,31.65
2018-06-07T10:24:13.839Z,30.47
2018-06-07T10:25:14.060Z,30.60
2018-06-07T10:26:14.287Z,30.62
2018-06-07T10:27:14.504Z,30.58
2018-06-07T10:28:14.724Z,31.14
2018-06-07T10:29:14.977Z,31.80
2018-06-07T10:30:15.146Z,32.22
2018-06-07T10:31:15.442Z,32.44
2018-06-07T10:32:15.534Z,31.81
2018-06-07T10:33:15.735Z,31.20
2018-06-07T10:34:15.955Z,30.99
2018-06-07T10:35:16.174Z,31.12
2018-06-07T10:36:16.389Z,31.58
2018-06-07T10:37:16.608Z,31.92
2018-06-07T10:38:16.832Z,32.00
2018-06-07T10:39:17.050Z,31.86
2018-06-07T10:40:17.256Z,31.95
2018-06-07T10:41:17.472Z,31.88
2018-06-07T10:42:17.671Z,31.31
2018-06-07T10:43:17.884Z,31.13
2018-06-07T10:44:18.082Z,31.19
2018-06-07T10:45:18.306Z,31.14
2018-06-07T10:46:18.505Z,31.70
2018-06-07T10:47:18.724Z,31.19
2018-06-07T10:48:18.922Z,31.34
2018-06-07T10:49:19.136Z,31.54
2018-06-07T10:50:19.362Z,31.02
2018-06-07T10:51:19.588Z,31.36
2018-06-07T10:52:19.815Z,31.46
2018-06-07T10:53:20.036Z,31.80
2018-06-07T10:54:20.251Z,32.04
2018-06-07T10:55:20.473Z,31.91
2018-06-07T10:56:20.678Z,31.78
2018-06-07T10:57:20.895Z,31.36
2018-06-07T10:58:21.092Z,31.36
2018-06-07T10:59:21.300Z,31.41
2018-06-07T11:00:21.493Z,31.39
2018-06-07T11:01:21.707Z,31.61
2018-06-07T11:02:21.907Z,31.92
2018-06-07T11:03:22.101Z,31.95
2018-06-07T11:04:22.326Z,32.11
2018-06-07T11:05:22.543Z,32.15
2018-06-07T11:06:22.767Z,31.92
2018-06-07T11:07:23.102Z,31.66
2018-06-07T11:08:23.195Z,32.06
2018-06-07T11:10:55.327Z,31.95
2018-06-07T11:11:55.513Z,31.38
2018-06-07T11:12:55.720Z,31.10
2018-06-07T11:13:55.922Z,31.31
2018-06-07T11:14:56.138Z,31.69
2018-06-07T11:15:56.326Z,32.23
2018-06-07T11:16:56.625Z,32.52
2018-06-07T11:19:28.800Z,31.99
2018-06-07T11:20:28.861Z,31.72
2018-06-07T11:21:29.137Z,32.28
2018-06-07T11:22:29.275Z,32.32
2018-06-07T11:23:29.495Z,32.65
2018-06-07T11:24:29.696Z,32.32
2018-06-07T11:25:29.900Z,32.63
2018-06-07T11:26:30.115Z,32.40
2018-06-07T11:27:30.319Z,32.70
2018-06-07T11:28:30.530Z,32.99
2018-06-07T11:29:30.745Z,32.84
2018-06-07T11:30:30.980Z,32.75
2018-06-07T11:31:31.206Z,32.04
2018-06-07T11:32:31.408Z,32.11
2018-06-07T11:33:31.630Z,32.50
2018-06-07T11:34:31.833Z,32.47
2018-06-07T11:35:32.045Z,31.66
2018-06-07T11:36:32.270Z,30.89
2018-06-07T11:37:32.489Z,30.72
2018-06-07T11:38:32.700Z,30.24
2018-06-07T11:39:32.927Z,29.70
2018-06-07T11:40:33.130Z,29.48
2018-06-07T11:41:33.331Z,29.30
2018-06-07T11:42:33.547Z,29.51
2018-06-07T11:43:33.754Z,29.63
2018-06-07T11:44:33.957Z,29.55
2018-06-07T11:45:34.157Z,29.51
2018-06-07T11:46:34.357Z,30.20
2018-06-07T11:47:34.572Z,30.80
2018-06-07T11:48:34.782Z,31.14
2018-06-07T11:49:35.016Z,31.61
2018-06-07T11:50:35.225Z,31.81
2018-06-07T11:51:35.445Z,31.54
2018-06-07T11:52:35.665Z,31.17
2018-06-07T11:53:35.876Z,31.20
2018-06-07T11:54:36.094Z,30.80
2018-06-07T11:55:36.285Z,31.06
2018-06-07T11:56:36.505Z,31.43
2018-06-07T11:57:36.724Z,31.89
2018-06-07T11:58:36.934Z,31.34
2018-06-07T11:59:37.154Z,31.68
2018-06-07T12:00:37.377Z,31.41
2018-06-07T12:01:37.582Z,31.23
2018-06-07T12:02:37.753Z,31.23
2018-06-07T12:03:37.959Z,31.46
2018-06-07T12:04:38.165Z,31.35
2018-06-07T12:05:38.395Z,31.43
2018-06-07T12:06:38.589Z,31.26
2018-06-07T12:07:38.813Z,31.25
2018-06-07T12:08:39.070Z,31.19
2018-06-07T12:11:11.355Z,31.57
2018-06-07T12:12:11.284Z,31.32
2018-06-07T12:13:11.478Z,31.50
2018-06-07T12:14:11.703Z,31.56
2018-06-07T12:15:11.914Z,31.58
2018-06-07T12:16:12.116Z,31.47
2018-06-07T12:17:12.312Z,31.12
2018-06-07T12:18:12.526Z,31.21
2018-06-07T12:19:12.734Z,31.10
2018-06-07T12:20:12.933Z,30.95
2018-06-07T12:21:13.143Z,30.79
2018-06-07T12:22:13.341Z,30.55
2018-06-07T12:23:13.529Z,30.49
2018-06-07T12:24:13.737Z,30.54
2018-06-07T12:25:13.971Z,30.53
2018-06-07T12:26:14.152Z,30.49
2018-06-07T12:27:14.360Z,30.38
2018-06-07T12:29:46.204Z,30.10
2018-06-07T12:30:46.390Z,29.97
2018-06-07T12:31:46.617Z,29.86
2018-06-07T12:32:46.803Z,29.87
2018-06-07T12:33:47.027Z,29.79
2018-06-07T12:34:47.224Z,29.67
2018-06-07T12:35:47.451Z,29.52
2018-06-07T12:36:47.688Z,29.51
2018-06-07T12:37:47.892Z,29.31
2018-06-07T12:38:48.106Z,29.55
2018-06-07T12:39:48.384Z,29.60
2018-06-07T12:40:48.507Z,29.51
2018-06-07T12:41:48.756Z,29.58
2018-06-07T12:42:48.982Z,29.52
2018-06-07T12:43:49.191Z,29.52
2018-06-07T12:44:49.409Z,29.51
2018-06-07T12:45:49.619Z,29.33
2018-06-07T12:46:49.862Z,29.28
2018-06-07T12:47:50.026Z,29.12
2018-06-07T12:48:50.241Z,29.18
2018-06-07T12:49:50.515Z,29.19
2018-06-07T12:50:50.595Z,29.36
2018-06-07T12:51:50.801Z,29.36
2018-06-07T12:52:51.023Z,29.31
2018-06-07T12:53:51.211Z,29.51
2018-06-07T12:54:51.409Z,29.63
2018-06-07T12:55:51.619Z,29.55
2018-06-07T12:56:51.837Z,29.45
2018-06-07T12:57:52.019Z,29.51
2018-06-07T12:58:52.220Z,29.41
2018-06-07T12:59:52.420Z,29.51
2018-06-07T13:00:52.636Z,29.65
2018-06-07T13:01:52.854Z,29.52
2018-06-07T13:02:53.063Z,29.41
2018-06-07T13:03:53.279Z,29.55
2018-06-07T13:04:53.468Z,29.37
2018-06-07T13:05:53.693Z,29.34
2018-06-07T13:06:53.897Z,29.36
2018-06-07T13:07:54.095Z,29.39
2018-06-07T13:08:54.288Z,29.60
2018-06-07T13:09:54.491Z,29.67
2018-06-07T13:10:54.695Z,29.60
2018-06-07T13:11:55.037Z,29.48
2018-06-07T13:12:55.139Z,29.52
2018-06-07T13:13:55.353Z,29.52
2018-06-07T13:14:55.553Z,29.30
2018-06-07T13:15:55.763Z,29.53
2018-06-07T13:16:55.983Z,29.33
2018-06-07T13:17:56.193Z,29.46
2018-06-07T13:18:56.394Z,29.51
2018-06-07T13:19:56.594Z,29.60
2018-06-07T13:20:56.793Z,29.74
2018-06-07T13:21:56.987Z,29.89
2018-06-07T13:22:57.189Z,29.86
2018-06-07T13:23:57.381Z,30.15
2018-06-07T13:24:57.595Z,29.97
2018-06-07T13:25:57.806Z,29.89